createdAt,value
2018-06-23T00:04:00.000Z,99291
2018-06-23T00:09:00.000Z,99284
2018-06-23T00:14:00.000Z,99285
2018-06-23T00:19:00.000Z,99286
2018-06-23T00:24:00.000Z,99289
2018-06-23T00:29:00.000Z,99292
2018-06-23T00:34:00.000Z,99275
2018-06-23T00:39:00.000Z,99287
2018-06-23T00:44:00.000Z,99278
2018-06-23T00:49:00.000Z,99272
2018-06-23T00:54:00.000Z,99295
2018-06-23T00:59:00.000Z,99267
2018-06-23T01:04:00.000Z,99272
2018-06-23T01:09:00.000Z,99267
2018-06-23T01:14:00.000Z,99273
2018-06-23T01:19:00.000Z,99264
2018-06-23T01:24:00.000Z,99260
2018-06-23T01:29:00.000Z,99253
2018-06-23T01:34:00.000Z,99244
2018-06-23T01:39:00.000Z,99244
2018-06-23T01:44:00.000Z,99244
2018-06-23T01:49:00.000Z,99251
2018-06-23T01:54:00.000Z,99253
2018-06-23T01:59:00.000Z,99249
2018-06-23T02:04:00.000Z,99246
2018-06-23T02:09:00.000Z,99230
2018-06-23T02:14:00.000Z,99236
2018-06-23T02:19:00.000Z,99238
2018-06-23T02:24:00.000Z,99227
2018-06-23T02:29:00.000Z,99222
2018-06-23T02:34:00.000Z,99237
2018-06-23T02:39:00.000Z,99228
2018-06-23T02:44:00.000Z,99226
2018-06-23T02:49:00.000Z,99238
2018-06-23T02:54:00.000Z,99229
2018-06-23T02:59:00.000Z,99238
2018-06-23T03:04:00.000Z,99239
2018-06-23T03:09:00.000Z,99246
2018-06-23T03:14:00.000Z,99238
2018-06-23T03:19:00.000Z,99249
2018-06-23T03:24:00.000Z,99259
2018-06-23T03:29:00.000Z,99265
2018-06-23T03:34:00.000Z,99256
2018-06-23T03:39:00.000Z,99268
2018-06-23T03:44:00.000Z,99270
2018-06-23T03:49:00.000Z,99269
2018-06-23T03:54:00.000Z,99272
2018-06-23T03:59:00.000Z,99266
2018-06-23T04:04:00.000Z,99259
2018-06-23T04:10:00.000Z,99257
2018-06-23T04:15:00.000Z,99258
2018-06-23T04:20:00.000Z,99266
2018-06-23T04:25:00.000Z,99264
2018-06-23T04:30:00.000Z,99265
2018-06-23T04:35:00.000Z,99273
2018-06-23T04:40:00.000Z,99275
2018-06-23T04:45:00.000Z,99275
2018-06-23T04:50:00.000Z,99292
2018-06-23T04:55:00.000Z,99301
2018-06-23T05:00:00.000Z,99296
2018-06-23T05:05:00.000Z,99296
2018-06-23T05:10:00.000Z,99305
2018-06-23T05:15:00.000Z,99298
2018-06-23T05:20:00.000Z,99303
2018-06-23T05:25:00.000Z,99291
2018-06-23T05:30:00.000Z,99298
2018-06-23T05:35:00.000Z,99301
2018-06-23T05:40:00.000Z,99306
2018-06-23T05:45:00.000Z,99305
2018-06-23T05:50:00.000Z,99306
2018-06-23T05:55:00.000Z,99308
2018-06-23T06:00:00.000Z,99298
2018-06-23T06:05:00.000Z,99299
2018-06-23T06:10:00.000Z,99307
2018-06-23T06:15:00.000Z,99310
2018-06-23T06:20:00.000Z,99302
2018-06-23T06:25:00.000Z,99301
2018-06-23T06:30:00.000Z,99305
2018-06-23T06:35:00.000Z,99309
2018-06-23T06:40:00.000Z,99304
2018-06-23T06:45:00.000Z,99304
2018-06-23T06:50:00.000Z,99299
2018-06-23T06:55:00.000Z,99299
2018-06-23T07:00:00.000Z,99302
2018-06-23T07:05:00.000Z,99307
2018-06-23T07:10:00.000Z,99302
2018-06-23T07:15:00.000Z,99295
2018-06-23T07:20:00.000Z,99291
2018-06-23T07:25:00.000Z,99280
2018-06-23T07:30:00.000Z,99286
2018-06-23T07:35:00.000Z,99285
2018-06-23T07:40:00.000Z,99290
2018-06-23T07:45:00.000Z,99297
2018-06-23T07:50:00.000Z,99283
2018-06-23T07:55:00.000Z,99284
2018-06-23T08:00:00.000Z,99275
2018-06-23T08:05:00.000Z,99274
2018-06-23T08:10:00.000Z,99280
2018-06-23T08:15:00.000Z,99271
2018-06-23T08:20:00.000Z,99272
2018-06-23T08:25:00.000Z,99270
2018-06-23T08:30:00.000Z,99264
2018-06-23T08:35:00.000Z,99265
2018-06-23T08:40:00.000Z,99255
2018-06-23T08:45:00.000Z,99273
2018-06-23T08:50:00.000Z,99263
2018-06-23T08:55:00.000Z,99267
2018-06-23T09:00:00.000Z,99265
2018-06-23T09:05:00.000Z,99251
2018-06-23T09:10:00.000Z,99254
2018-06-23T09:15:00.000Z,99254
2018-06-23T09:20:00.000Z,99236
2018-06-23T09:25:00.000Z,99238
2018-06-23T09:30:00.000Z,99238
2018-06-23T09:35:00.000Z,99235
2018-06-23T09:40:00.000Z,99234
2018-06-23T09:45:00.000Z,99244
2018-06-23T09:50:00.000Z,99227
2018-06-23T09:55:00.000Z,99235
2018-06-23T10:01:00.000Z,99232
2018-06-23T10:06:00.000Z,99216
2018-06-23T10:11:00.000Z,99211
2018-06-23T10:16:00.000Z,99213
2018-06-23T10:21:00.000Z,99205
2018-06-23T10:26:00.000Z,99197
2018-06-23T10:31:00.000Z,99199
2018-06-23T10:36:00.000Z,99204
2018-06-23T10:41:00.000Z,99218
2018-06-23T10:46:00.000Z,99198
2018-06-23T10:51:00.000Z,99204
2018-06-23T10:56:00.000Z,99191
2018-06-23T11:01:00.000Z,99185
2018-06-23T11:06:00.000Z,99187
2018-06-23T11:11:00.000Z,99189
2018-06-23T11:16:00.000Z,99187
2018-06-23T11:21:00.000Z,99179
2018-06-23T11:26:00.000Z,99171
2018-06-23T11:31:00.000Z,99162
2018-06-23T11:36:00.000Z,99177
2018-06-23T11:41:00.000Z,99166
2018-06-23T11:46:00.000Z,99156
2018-06-23T11:51:00.000Z,99154
2018-06-23T11:56:00.000Z,99148
2018-06-23T12:01:00.000Z,99145
2018-06-23T12:06:00.000Z,99135
2018-06-23T12:11:00.000Z,99128
2018-06-23T12:16:00.000Z,99135
2018-06-23T12:21:00.000Z,99134
2018-06-23T12:26:00.000Z,99140
2018-06-23T12:31:00.000Z,99144
2018-06-23T12:36:00.000Z,99140
2018-06-23T12:41:00.000Z,99139
2018-06-23T12:46:00.000Z,99127
2018-06-23T12:51:00.000Z,99115
2018-06-23T12:56:00.000Z,99115
2018-06-23T13:01:00.000Z,99106
2018-06-23T13:06:00.000Z,99112
2018-06-23T13:11:00.000Z,99110
2018-06-23T13:16:00.000Z,99097
2018-06-23T13:21:00.000Z,99087
2018-06-23T13:26:00.000Z,99080
2018-06-23T13:31:00.000Z,99083
2018-06-23T13:36:00.000Z,99074
2018-06-23T13:41:00.000Z,99078
2018-06-23T13:46:00.000Z,99060
2018-06-23T13:51:00.000Z,99062
2018-06-23T13:56:00.000Z,99060
2018-06-23T14:01:00.000Z,99059
2018-06-23T14:06:00.000Z,99045
2018-06-23T14:11:00.000Z,99039
2018-06-23T14:16:00.000Z,99044
2018-06-23T14:21:00.000Z,99040
2018-06-23T14:26:00.000Z,99039
2018-06-23T14:31:00.000Z,99028
2018-06-23T14:36:00.000Z,99024
2018-06-23T14:41:00.000Z,99016
2018-06-23T14:46:00.000Z,99026
2018-06-23T14:51:00.000Z,99025
2018-06-23T14:56:00.000Z,99020
2018-06-23T15:01:00.000Z,99027
2018-06-23T15:06:00.000Z,99013
2018-06-23T15:11:00.000Z,99025
2018-06-23T15:16:00.000Z,99035
2018-06-23T15:21:00.000Z,99020
2018-06-23T15:26:00.000Z,99016
2018-06-23T15:31:00.000Z,99016
2018-06-23T15:36:00.000Z,99011
2018-06-23T15:41:00.000Z,99014
2018-06-23T15:46:00.000Z,99024
2018-06-23T15:51:00.000Z,99014
2018-06-23T15:56:00.000Z,99028
2018-06-23T16:01:00.000Z,99033
2018-06-23T16:07:00.000Z,99038
2018-06-23T16:12:00.000Z,99030
2018-06-23T16:17:00.000Z,99041
2018-06-23T16:22:00.000Z,99032
2018-06-23T16:27:00.000Z,99040
2018-06-23T16:32:00.000Z,99033
2018-06-23T16:37:00.000Z,99037
2018-06-23T16:42:00.000Z,99037
2018-06-23T16:47:00.000Z,99045
2018-06-23T16:52:00.000Z,99053
2018-06-23T16:57:00.000Z,99038
2018-06-23T17:02:00.000Z,99050
2018-06-23T17:07:00.000Z,99050
2018-06-23T17:12:00.000Z,99058
2018-06-23T17:17:00.000Z,99043
2018-06-23T17:22:00.000Z,99059
2018-06-23T17:27:00.000Z,99060
2018-06-23T17:32:00.000Z,99068
2018-06-23T17:37:00.000Z,99060
2018-06-23T17:42:00.000Z,99069
2018-06-23T17:47:00.000Z,99075
2018-06-23T17:52:00.000Z,99076
2018-06-23T17:57:00.000Z,99073
2018-06-23T18:02:00.000Z,99070
2018-06-23T18:07:00.000Z,99073
2018-06-23T18:12:00.000Z,99082
2018-06-23T18:17:00.000Z,99089
2018-06-23T18:22:00.000Z,99090
2018-06-23T18:27:00.000Z,99100
2018-06-23T18:32:00.000Z,99091
2018-06-23T18:37:00.000Z,99105
2018-06-23T18:42:00.000Z,99106
2018-06-23T18:47:00.000Z,99113
2018-06-23T18:52:00.000Z,99112
2018-06-23T18:57:00.000Z,99127
2018-06-23T19:02:00.000Z,99126
2018-06-23T19:07:00.000Z,99127
2018-06-23T19:12:00.000Z,99135
2018-06-23T19:17:00.000Z,99141
2018-06-23T19:22:00.000Z,99150
2018-06-23T19:27:00.000Z,99154
2018-06-23T19:32:00.000Z,99163
2018-06-23T19:37:00.000Z,99167
2018-06-23T19:42:00.000Z,99177
2018-06-23T19:47:00.000Z,99177
2018-06-23T19:52:00.000Z,99184
2018-06-23T19:57:00.000Z,99176
2018-06-23T20:02:00.000Z,99173
2018-06-23T20:07:00.000Z,99170
2018-06-23T20:12:00.000Z,99173
2018-06-23T20:17:00.000Z,99172
2018-06-23T20:22:00.000Z,99177
2018-06-23T20:27:00.000Z,99185
2018-06-23T20:32:00.000Z,99197
2018-06-23T20:37:00.000Z,99195
2018-06-23T20:42:00.000Z,99191
2018-06-23T20:47:00.000Z,99197
2018-06-23T20:52:00.000Z,99204
2018-06-23T20:57:00.000Z,99193
2018-06-23T21:02:00.000Z,99198
2018-06-23T21:07:00.000Z,99192
2018-06-23T21:12:00.000Z,99194
2018-06-23T21:17:00.000Z,99185
2018-06-23T21:22:00.000Z,99178
2018-06-23T21:27:00.000Z,99170
2018-06-23T21:32:00.000Z,99176
2018-06-23T21:37:00.000Z,99183
2018-06-23T21:42:00.000Z,99183
2018-06-23T21:47:00.000Z,99181
2018-06-23T21:52:00.000Z,99176
2018-06-23T21:57:00.000Z,99185
2018-06-23T22:02:00.000Z,99187
2018-06-23T22:07:00.000Z,99185
2018-06-23T22:12:00.000Z,99183
2018-06-23T22:18:00.000Z,99182
2018-06-23T22:23:00.000Z,99182
2018-06-23T22:28:00.000Z,99182
2018-06-23T22:33:00.000Z,99187
2018-06-23T22:38:00.000Z,99188
2018-06-23T22:43:00.000Z,99190
2018-06-23T22:48:00.000Z,99189
2018-06-23T22:53:00.000Z,99180
2018-06-23T22:58:00.000Z,99193
2018-06-23T23:03:00.000Z,99197
2018-06-23T23:08:00.000Z,99194
2018-06-23T23:13:00.000Z,99188
2018-06-23T23:18:00.000Z,99180
2018-06-23T23:23:00.000Z,99190
2018-06-23T23:28:00.000Z,99176
2018-06-23T23:33:00.000Z,99167
2018-06-23T23:38:00.000Z,99165
